Portada
METAR-TAF:

METAR-TAF

Aeropuertos :

Parma, Italia

latitud: 44-49-17N, longitud: 010-17-41E, altitud: 50 m

Observación

El informe se hizo hace 7 horas y 57 minutos, a las 17:50 UTC
Viento 4 kt del este-noreste
Temperatura 12°C
Humedad 67%
Presión 1012 hPa
Visibilidad 10 km o más
sin nubes por debajo de 1500 m y sin presencia de cumulonimbus.

METAR: LIMP 021750Z 06004KT CAVOK 12/06 Q1012

Hora: 03:47 (01:47 UTC)

Pronóstico

El informe se hizo hace 14 horas y 47 minutos, a las 11:00 UTC
Pronóstico válido del 02 a las 12 UTC al 03 a las 12 UTC
Viento 10 kt del este
Visibilidad 10 km o más
sin nubes por debajo de 1500 m y sin presencia de cumulonimbus.
Evolucionando progresivamente
del 02 a las 16 UTC al 02 a las 18 UTC
Viento 4 kt con dirección variable

TAF: LIMP 021100Z 0212/0312 10010KT CAVOK BECMG 0216/0218 VRB04KT

Observaciones y pronósticos meteorológicos de más de 4000 aeropuertos (mensajes METAR y TAF).

Los puntos amarillos y rojos representan las estaciones disponibles.

Ponga el ratón en el punto deseado para ver el nombre de la estación.

Haga clic para ver las observaciones y los pronósticos meteorológicos.

Para cambiar el mapa : haga clic en los botones verdes con una cruz de color negro para hacer un zoom, en el botón verde con un guión para alejar o en las flechas verdes para mapas adyacentes.


METAR-TAF: